Time;durP1;ratioP1;P1;durP2;ratioP2;P2;SDS_P1;SDS_P2;PMS_P1;PMS_P2;Temp;Humidity;BMP_temperature;BMP_pressure;BME280_temperature;BME280_humidity;BME280_pressure;Samples;Min_cycle;Max_cycle;Signal;HPM_P1;HPM_P2
2023/05/30 00:01:20;;;;;;;8.30;4.33;;;;;;;17.19;100.00;96462.41;6102700;23;20076;-90
2023/05/30 00:03:46;;;;;;;9.40;3.83;;;;;;;17.11;100.00;96454.59;6126394;23;20461;-91
2023/05/30 00:06:13;;;;;;;9.70;3.57;;;;;;;17.11;100.00;96449.28;6104271;23;20055;-91
2023/05/30 00:08:42;;;;;;;9.97;4.83;;;;;;;17.17;100.00;96453.00;6103649;23;20014;-91
2023/05/30 00:11:08;;;;;;;8.17;4.13;;;;;;;17.27;100.00;96461.44;6127079;23;20005;-91
2023/05/30 00:13:34;;;;;;;11.13;3.87;;;;;;;17.53;100.00;96451.94;6104384;23;20010;-91
2023/05/30 00:16:01;;;;;;;6.73;3.43;;;;;;;17.40;100.00;96452.69;6127139;23;20387;-90
2023/05/30 00:18:34;;;;;;;10.40;3.97;;;;;;;17.11;100.00;96459.91;6127011;23;20017;-91
2023/05/30 00:21:02;;;;;;;7.25;3.50;;;;;;;17.17;100.00;96469.75;6126592;23;20338;-91
2023/05/30 00:23:28;;;;;;;9.37;4.63;;;;;;;17.18;100.00;96458.09;6128874;23;20044;-91
2023/05/30 00:25:55;;;;;;;9.10;3.53;;;;;;;17.04;100.00;96467.00;6128488;23;20366;-91
2023/05/30 00:28:22;;;;;;;7.13;3.73;;;;;;;16.83;100.00;96473.16;6153663;23;20005;-91
2023/05/30 00:30:48;;;;;;;8.73;3.80;;;;;;;17.03;100.00;96472.50;6105627;23;20009;-91
2023/05/30 00:33:14;;;;;;;8.47;4.00;;;;;;;17.03;100.00;96473.31;6129380;23;20105;-92
2023/05/30 00:35:40;;;;;;;9.57;3.93;;;;;;;16.98;100.00;96475.75;6129243;23;20092;-91
2023/05/30 00:38:08;;;;;;;7.03;3.50;;;;;;;17.18;100.00;96468.72;6130088;23;20001;-91
2023/05/30 00:40:33;;;;;;;8.23;4.10;;;;;;;17.10;100.00;96468.06;6154998;23;20048;-91
2023/05/30 00:42:59;;;;;;;9.10;3.90;;;;;;;17.14;100.00;96475.47;6130984;23;20029;-91
2023/05/30 00:45:25;;;;;;;8.03;4.20;;;;;;;17.05;100.00;96468.66;6133772;23;20009;-91
2023/05/30 00:47:53;;;;;;;9.83;3.90;;;;;;;17.17;100.00;96472.41;6133041;23;20020;-91
2023/05/30 00:50:19;;;;;;;6.80;3.50;;;;;;;16.81;100.00;96474.41;6132507;23;20043;-90
2023/05/30 00:52:47;;;;;;;8.30;4.30;;;;;;;16.85;100.00;96475.66;6132956;23;20013;-90
2023/05/30 00:55:12;;;;;;;7.70;4.13;;;;;;;16.82;100.00;96474.19;6108047;23;20069;-91
2023/05/30 00:57:39;;;;;;;10.53;4.50;;;;;;;16.78;100.00;96474.78;6132227;23;20060;-92
2023/05/30 01:00:10;;;;;;;7.40;3.30;;;;;;;16.81;100.00;96475.22;6132451;23;20072;-90
2023/05/30 01:02:38;;;;;;;5.63;3.63;;;;;;;16.85;100.00;96473.00;6132575;23;20025;-90
2023/05/30 01:05:04;;;;;;;8.70;3.73;;;;;;;16.65;100.00;96470.16;6132580;23;20064;-92
2023/05/30 01:07:31;;;;;;;8.03;3.40;;;;;;;16.48;100.00;96466.94;6132774;23;20032;-91
2023/05/30 01:09:58;;;;;;;7.47;4.07;;;;;;;16.53;100.00;96471.66;6132200;23;20066;-91
2023/05/30 01:12:56;;;;;;;7.33;4.27;;;;;;;16.79;100.00;96468.44;6133566;23;20374;-91
2023/05/30 01:15:29;;;;;;;8.13;4.03;;;;;;;16.66;100.00;96469.94;6100546;23;20426;-91
2023/05/30 01:18:40;;;;;;;8.07;4.30;;;;;;;16.46;100.00;96466.28;6130877;23;20006;-91
2023/05/30 01:21:10;;;;;;;7.57;3.80;;;;;;;16.42;100.00;96452.56;6113498;23;20033;-91
2023/05/30 01:23:55;;;;;;;9.13;3.77;;;;;;;16.53;100.00;96456.56;6136575;23;20013;-91
2023/05/30 01:26:41;;;;;;;9.00;3.93;;;;;;;16.20;100.00;96454.44;6127130;23;20013;-91
2023/05/30 01:29:13;;;;;;;8.00;3.93;;;;;;;16.29;100.00;96454.28;6126823;23;20091;-91
2023/05/30 01:31:39;;;;;;;10.00;3.93;;;;;;;16.39;100.00;96449.47;6127095;23;20009;-90
2023/05/30 01:34:05;;;;;;;6.27;3.67;;;;;;;16.32;100.00;96449.41;6127066;23;20029;-91
2023/05/30 01:36:33;;;;;;;7.87;3.60;;;;;;;16.36;100.00;96449.88;6127683;23;20059;-90
2023/05/30 01:38:59;;;;;;;8.13;3.90;;;;;;;16.41;100.00;96442.97;6127005;23;20005;-90
2023/05/30 01:41:40;;;;;;;9.60;4.13;;;;;;;16.20;100.00;96438.50;6126453;23;20315;-91
2023/05/30 01:44:37;;;;;;;8.97;4.70;;;;;;;16.42;100.00;96438.50;6128799;23;20005;-91
2023/05/30 01:47:35;;;;;;;8.17;4.03;;;;;;;15.91;100.00;96442.06;6130849;23;20387;-91
2023/05/30 01:50:10;;;;;;;8.63;3.80;;;;;;;16.09;100.00;96448.78;6098636;23;20037;-91
2023/05/30 01:52:40;;;;;;;8.10;4.10;;;;;;;15.57;100.00;96453.28;6130885;23;20453;-91
2023/05/30 01:55:08;;;;;;;8.00;4.30;;;;;;;15.88;100.00;96449.59;6113540;23;20001;-90
2023/05/30 01:57:45;;;;;;;7.47;4.10;;;;;;;15.90;100.00;96437.78;6137754;23;20016;-90
2023/05/30 02:00:14;;;;;;;9.67;4.40;;;;;;;15.85;100.00;96449.97;6112545;23;20005;-91
2023/05/30 02:02:43;;;;;;;9.27;3.83;;;;;;;15.87;100.00;96434.69;6106816;23;20002;-91
2023/05/30 02:05:09;;;;;;;8.97;4.23;;;;;;;15.82;100.00;96447.69;6131637;23;20005;-91
2023/05/30 02:07:35;;;;;;;9.80;4.13;;;;;;;15.88;100.00;96436.31;6131129;23;20012;-90
2023/05/30 02:10:01;;;;;;;7.47;3.70;;;;;;;15.73;100.00;96452.28;6131271;23;20009;-90
2023/05/30 02:12:26;;;;;;;8.57;3.90;;;;;;;15.58;100.00;96454.91;6131767;23;20001;-90
2023/05/30 02:14:54;;;;;;;8.50;4.03;;;;;;;15.61;100.00;96454.53;6130421;23;20053;-91
2023/05/30 02:17:21;;;;;;;10.60;4.30;;;;;;;15.37;100.00;96455.66;6128751;23;20522;-90
2023/05/30 02:19:48;;;;;;;7.60;4.40;;;;;;;15.51;100.00;96457.47;6127666;23;20065;-91
2023/05/30 02:22:13;;;;;;;12.77;4.47;;;;;;;15.45;100.00;96454.75;6128945;23;20010;-91
2023/05/30 02:24:39;;;;;;;10.13;4.07;;;;;;;15.28;100.00;96456.75;6130275;23;19997;-90
2023/05/30 02:27:06;;;;;;;7.43;3.83;;;;;;;15.36;100.00;96453.19;6129418;23;20016;-90
2023/05/30 02:29:32;;;;;;;10.13;3.97;;;;;;;15.50;100.00;96441.78;6128409;23;20005;-91
2023/05/30 02:31:58;;;;;;;11.53;4.30;;;;;;;15.47;100.00;96447.44;6126903;23;20009;-90
2023/05/30 02:34:24;;;;;;;7.70;4.20;;;;;;;15.51;100.00;96441.56;6126039;23;20868;-90
2023/05/30 02:36:50;;;;;;;7.53;3.90;;;;;;;15.52;100.00;96445.84;6099870;23;20092;-91
2023/05/30 02:39:17;;;;;;;7.93;4.00;;;;;;;15.39;100.00;96443.06;6123893;23;20407;-91
2023/05/30 02:41:42;;;;;;;8.60;4.30;;;;;;;15.33;100.00;96441.97;6124378;23;20006;-91
2023/05/30 02:44:08;;;;;;;7.97;4.50;;;;;;;15.40;100.00;96438.59;6128359;23;20009;-91
2023/05/30 02:46:34;;;;;;;9.20;4.20;;;;;;;15.59;100.00;96438.00;6130852;23;20016;-90
2023/05/30 02:49:01;;;;;;;8.97;4.60;;;;;;;15.25;100.00;96446.53;6129033;23;20438;-90
2023/05/30 02:51:28;;;;;;;9.47;4.60;;;;;;;15.29;100.00;96443.34;6130026;23;20017;-90
2023/05/30 02:53:53;;;;;;;7.97;4.10;;;;;;;15.12;100.00;96444.50;6131164;23;20002;-90
2023/05/30 02:56:27;;;;;;;9.40;4.77;;;;;;;15.29;100.00;96447.78;6130370;23;20006;-90
2023/05/30 02:59:07;;;;;;;8.03;4.40;;;;;;;15.09;100.00;96442.25;6131763;23;20001;-91
2023/05/30 03:28:06;;;;;;;11.70;3.87;;;;;;;15.12;100.00;96452.47;6164649;23;20080;-91
2023/05/30 03:30:48;;;;;;;8.00;3.80;;;;;;;15.00;100.00;96453.94;6127865;23;20045;-91
2023/05/30 03:33:14;;;;;;;8.63;4.67;;;;;;;15.03;100.00;96459.69;6128828;23;20001;-90
2023/05/30 03:35:40;;;;;;;8.60;4.83;;;;;;;14.96;100.00;96458.78;6127559;23;20011;-91
2023/05/30 03:38:05;;;;;;;7.77;4.00;;;;;;;14.98;100.00;96466.53;6128360;23;20013;-90
2023/05/30 03:40:31;;;;;;;10.80;4.30;;;;;;;14.90;100.00;96474.56;6128200;23;20002;-90
2023/05/30 03:42:56;;;;;;;10.70;4.97;;;;;;;15.09;100.00;96471.38;6127173;23;20013;-91
2023/05/30 03:45:22;;;;;;;6.33;3.63;;;;;;;14.91;100.00;96473.53;6127006;23;20010;-90
2023/05/30 03:47:47;;;;;;;8.47;4.23;;;;;;;14.98;100.00;96462.03;6125197;23;20037;-91
2023/05/30 03:50:13;;;;;;;11.17;4.50;;;;;;;15.01;100.00;96466.16;6137358;23;20434;-90
2023/05/30 03:52:39;;;;;;;8.47;4.30;;;;;;;15.03;100.00;96464.16;6123936;23;19998;-91
2023/05/30 03:55:05;;;;;;;8.73;4.40;;;;;;;15.09;100.00;96468.75;6125630;23;20010;-90
2023/05/30 03:57:30;;;;;;;8.00;4.33;;;;;;;15.10;100.00;96465.09;6121766;23;20211;-90
2023/05/30 03:59:56;;;;;;;8.87;3.87;;;;;;;15.05;100.00;96462.97;6123805;23;20033;-91
2023/05/30 04:02:24;;;;;;;8.57;4.93;;;;;;;15.06;100.00;96469.09;6126094;23;20005;-91
2023/05/30 04:04:50;;;;;;;11.27;4.90;;;;;;;14.79;100.00;96467.88;6126146;23;20009;-91
2023/05/30 04:07:16;;;;;;;9.50;4.17;;;;;;;14.93;100.00;96468.91;6101787;23;20005;-91
2023/05/30 04:09:42;;;;;;;11.90;4.63;;;;;;;15.18;100.00;96464.97;6126436;23;20037;-91
2023/05/30 04:12:09;;;;;;;10.70;4.53;;;;;;;15.08;100.00;96461.78;6125783;23;20001;-90
2023/05/30 04:14:34;;;;;;;13.80;5.20;;;;;;;15.09;100.00;96476.69;6124653;23;20035;-91
2023/05/30 04:17:00;;;;;;;10.40;4.87;;;;;;;15.05;100.00;96476.19;6124420;23;20799;-90
2023/05/30 04:19:26;;;;;;;8.13;4.60;;;;;;;14.91;100.00;96482.31;6125166;23;20029;-91
2023/05/30 04:21:51;;;;;;;10.57;4.63;;;;;;;14.97;100.00;96489.53;6126571;23;20044;-91
2023/05/30 04:24:17;;;;;;;9.30;5.03;;;;;;;15.03;100.00;96490.66;6127422;23;20396;-91
2023/05/30 04:26:48;;;;;;;8.70;4.27;;;;;;;15.11;100.00;96482.59;6149737;23;20097;-90
2023/05/30 04:29:14;;;;;;;11.90;5.07;;;;;;;15.40;100.00;96487.09;6126176;23;20086;-90
2023/05/30 04:31:40;;;;;;;9.93;4.50;;;;;;;15.37;100.00;96491.94;6125482;23;20056;-90
2023/05/30 04:34:05;;;;;;;8.27;3.97;;;;;;;15.28;100.00;96494.66;6127772;23;20001;-90
2023/05/30 04:36:36;;;;;;;7.53;4.17;;;;;;;15.57;100.00;96496.50;6165584;23;20028;-90
2023/05/30 04:39:02;;;;;;;11.53;4.40;;;;;;;15.47;100.00;96500.44;6139006;23;20049;-91
2023/05/30 04:41:28;;;;;;;10.27;4.60;;;;;;;15.66;100.00;96493.75;6140907;23;19994;-91
2023/05/30 04:43:57;;;;;;;8.83;4.63;;;;;;;15.77;100.00;96502.09;6159524;23;20007;-91
2023/05/30 04:46:23;;;;;;;8.57;4.37;;;;;;;15.81;100.00;96504.38;6126373;23;20013;-91
2023/05/30 04:48:53;;;;;;;10.27;4.60;;;;;;;15.82;100.00;96504.19;6124417;23;20009;-91
2023/05/30 04:51:28;;;;;;;6.43;3.73;;;;;;;15.75;100.00;96496.16;6125357;23;20656;-91
2023/05/30 04:53:54;;;;;;;9.90;4.80;;;;;;;15.57;100.00;96495.69;6125473;23;20111;-91
2023/05/30 04:56:20;;;;;;;9.40;4.23;;;;;;;15.83;100.00;96503.19;6149630;23;20020;-91
2023/05/30 04:58:48;;;;;;;8.53;4.80;;;;;;;15.73;100.00;96503.47;6124839;23;20009;-92
2023/05/30 05:01:18;;;;;;;9.17;4.70;;;;;;;15.71;100.00;96504.66;6125101;23;20434;-90
2023/05/30 05:03:44;;;;;;;8.70;4.67;;;;;;;16.12;100.00;96498.81;6125713;23;20373;-91
2023/05/30 05:06:11;;;;;;;8.23;4.43;;;;;;;16.18;100.00;96501.53;6126066;23;20060;-91
2023/05/30 05:08:37;;;;;;;8.17;4.60;;;;;;;16.28;100.00;96509.19;6127303;23;20051;-91
2023/05/30 05:11:05;;;;;;;8.23;4.47;;;;;;;16.31;100.00;96511.47;6127691;23;20729;-90
2023/05/30 05:13:31;;;;;;;9.03;4.43;;;;;;;16.14;100.00;96518.84;6128580;23;20001;-91
2023/05/30 05:15:57;;;;;;;9.13;4.30;;;;;;;16.50;100.00;96516.19;6131303;23;20012;-90
2023/05/30 05:18:23;;;;;;;7.97;4.80;;;;;;;16.58;100.00;96517.06;6155997;23;20005;-89
2023/05/30 05:20:49;;;;;;;8.73;4.63;;;;;;;16.11;100.00;96519.22;6131267;23;20033;-93
2023/05/30 05:23:15;;;;;;;9.63;4.03;;;;;;;16.29;100.00;96518.78;6133146;23;20006;-92
2023/05/30 05:25:40;;;;;;;7.90;4.07;;;;;;;16.26;100.00;96519.16;6133421;23;20123;-92
2023/05/30 05:28:06;;;;;;;10.37;4.60;;;;;;;16.54;100.00;96521.94;6147274;23;20005;-92
2023/05/30 05:34:19;;;;;;;11.90;5.40;;;;;;;16.78;100.00;96514.63;6159556;23;20044;-93
2023/05/30 05:36:45;;;;;;;11.40;5.03;;;;;;;16.79;100.00;96518.91;6133164;23;20454;-93
2023/05/30 05:39:11;;;;;;;11.83;5.90;;;;;;;16.85;100.00;96532.25;6133425;23;20002;-94
2023/05/30 05:41:55;;;;;;;14.57;9.83;;;;;;;17.86;100.00;96526.59;6133463;23;20002;-94
2023/05/30 05:44:40;;;;;;;12.60;5.20;;;;;;;17.44;100.00;96525.75;6131611;23;20017;-94
2023/05/30 05:47:14;;;;;;;8.10;4.18;;;;;;;17.09;100.00;96535.50;6154812;23;20068;-92
2023/05/30 05:49:40;;;;;;;16.40;8.97;;;;;;;18.00;100.00;96527.47;6132095;23;20051;-93
2023/05/30 05:52:05;;;;;;;11.17;4.80;;;;;;;17.32;100.00;96536.09;6132017;23;20005;-95
2023/05/30 05:54:31;;;;;;;10.60;5.33;;;;;;;17.67;100.00;96538.75;6132937;23;20032;-94
2023/05/30 05:56:56;;;;;;;10.17;4.27;;;;;;;17.84;100.00;96533.94;6133200;23;20012;-95
2023/05/30 05:59:22;;;;;;;9.83;3.90;;;;;;;18.04;100.00;96540.22;6129987;23;20001;-94
2023/05/30 06:01:47;;;;;;;77.30;13.47;;;;;;;18.71;100.00;96535.03;6155567;23;20005;-91
2023/05/30 06:04:13;;;;;;;10.03;5.57;;;;;;;18.04;100.00;96539.38;6127413;23;20010;-89
2023/05/30 06:06:39;;;;;;;59.87;14.17;;;;;;;19.03;100.00;96528.97;6152813;23;20029;-93
2023/05/30 06:09:05;;;;;;;12.57;4.60;;;;;;;18.88;100.00;96536.34;6130432;23;20013;-93
2023/05/30 06:11:30;;;;;;;10.27;4.33;;;;;;;19.04;100.00;96535.91;6131743;23;20051;-91
2023/05/30 06:13:56;;;;;;;10.67;4.10;;;;;;;19.00;100.00;96540.03;6133203;23;19998;-94
2023/05/30 06:16:21;;;;;;;9.73;4.53;;;;;;;19.52;100.00;96543.69;6157487;23;20043;-93
2023/05/30 06:18:47;;;;;;;14.00;4.50;;;;;;;19.04;100.00;96541.25;6109017;23;20001;-94
2023/05/30 06:21:13;;;;;;;13.27;4.97;;;;;;;19.38;100.00;96546.56;6157250;23;20001;-93
2023/05/30 06:23:51;;;;;;;7.63;4.07;;;;;;;18.98;100.00;96552.75;6132126;23;20005;-94
2023/05/30 06:26:16;;;;;;;55.70;11.57;;;;;;;19.99;100.00;96549.78;6131272;23;20060;-92
2023/05/30 06:28:42;;;;;;;125.18;18.60;;;;;;;20.28;100.00;96547.59;6132010;23;20009;-91
2023/05/30 06:31:07;;;;;;;138.35;21.08;;;;;;;20.51;100.00;96548.94;6137597;23;20005;-93
2023/05/30 06:33:33;;;;;;;11.13;3.83;;;;;;;20.42;97.76;96545.66;6154211;23;20045;-93
2023/05/30 06:35:59;;;;;;;11.23;4.90;;;;;;;19.65;100.00;96544.72;6150087;23;20479;-93
2023/05/30 06:38:25;;;;;;;8.27;4.17;;;;;;;19.97;98.71;96557.16;6139302;23;20012;-95
2023/05/30 06:40:52;;;;;;;9.05;3.78;;;;;;;19.92;95.59;96551.66;6151802;23;20063;-93
2023/05/30 06:43:17;;;;;;;12.73;3.97;;;;;;;20.30;92.57;96550.88;6145011;23;20132;-96
2023/05/30 06:45:43;;;;;;;7.45;3.65;;;;;;;20.59;90.92;96552.19;6130068;23;20005;-95
2023/05/30 06:48:16;;;;;;;9.77;4.05;;;;;;;20.41;89.81;96557.38;6128717;23;20050;-95
2023/05/30 06:51:21;;;;;;;11.15;4.43;;;;;;;20.48;90.29;96563.50;6127121;23;20501;-94
2023/05/30 06:56:47;;;;;;;7.30;3.80;;;;;;;20.61;92.45;96565.34;6137805;23;20017;-93
2023/05/30 06:59:44;;;;;;;13.32;4.00;;;;;;;20.24;95.00;96565.06;6154825;23;20329;-93
2023/05/30 07:02:10;;;;;;;10.60;3.58;;;;;;;20.85;93.25;96563.75;6129392;23;20036;-92
2023/05/30 07:04:36;;;;;;;10.88;3.50;;;;;;;20.46;92.77;96570.94;6127387;23;20088;-93
2023/05/30 07:07:02;;;;;;;6.57;3.80;;;;;;;20.89;89.69;96565.78;6153434;23;20009;-94
2023/05/30 07:09:28;;;;;;;8.18;3.75;;;;;;;21.36;86.26;96560.94;6106875;23;20005;-92
2023/05/30 07:12:12;;;;;;;6.95;3.58;;;;;;;21.81;82.35;96563.38;6131624;23;20002;-93
2023/05/30 07:14:38;;;;;;;9.13;3.60;;;;;;;21.62;78.46;96559.03;6131958;23;20006;-93
2023/05/30 07:17:07;;;;;;;12.55;4.10;;;;;;;22.29;75.00;96573.34;6129492;23;20016;-93
2023/05/30 07:19:32;;;;;;;8.65;3.83;;;;;;;22.02;75.85;96569.31;6155634;23;20009;-95
2023/05/30 07:21:58;;;;;;;8.43;3.63;;;;;;;21.68;80.11;96568.84;6130005;23;20348;-92
2023/05/30 07:24:24;;;;;;;9.57;4.07;;;;;;;21.57;83.31;96567.72;6131413;23;20001;-93
2023/05/30 07:26:50;;;;;;;18.63;4.43;;;;;;;21.83;82.78;96566.66;6133977;23;20017;-93
2023/05/30 07:29:16;;;;;;;7.53;4.15;;;;;;;21.46;81.54;96570.28;6129616;23;20056;-94
2023/05/30 07:31:48;;;;;;;21.02;5.60;;;;;;;21.33;84.04;96566.69;6129800;23;20021;-93
2023/05/30 07:34:17;;;;;;;21.20;6.10;;;;;;;21.90;79.89;96566.59;6132758;23;20009;-94
2023/05/30 07:37:13;;;;;;;8.55;3.95;;;;;;;21.71;80.12;96562.25;6127106;23;20382;-94
2023/05/30 07:39:39;;;;;;;8.88;4.07;;;;;;;21.16;82.04;96560.25;6134934;23;20001;-93
2023/05/30 07:42:16;;;;;;;11.52;4.10;;;;;;;21.53;78.89;96560.34;6134846;23;20002;-94
2023/05/30 07:44:51;;;;;;;9.98;3.75;;;;;;;22.44;76.58;96553.41;6131345;23;20041;-94
2023/05/30 07:47:17;;;;;;;8.95;3.80;;;;;;;23.17;69.39;96550.50;6132381;23;20005;-95
2023/05/30 07:49:42;;;;;;;7.38;3.50;;;;;;;22.72;70.33;96542.91;6133061;23;20016;-94
2023/05/30 07:52:09;;;;;;;14.25;3.83;;;;;;;23.43;66.44;96537.69;6132831;23;20001;-95
2023/05/30 07:54:41;;;;;;;9.98;4.03;;;;;;;23.48;64.38;96540.50;6132311;23;20013;-94
2023/05/30 07:57:07;;;;;;;10.43;4.60;;;;;;;23.51;65.92;96540.84;6131677;23;20013;-93
2023/05/30 07:59:33;;;;;;;11.85;4.47;;;;;;;23.87;59.58;96541.66;6131927;23;20005;-93
2023/05/30 08:01:58;;;;;;;7.68;3.55;;;;;;;23.69;63.46;96547.16;6156725;23;20484;-94
2023/05/30 08:04:24;;;;;;;8.55;4.07;;;;;;;23.86;60.62;96545.41;6156093;23;20013;-92
2023/05/30 08:06:56;;;;;;;14.50;5.20;;;;;;;24.51;56.51;96541.63;6131588;23;19998;-92
2023/05/30 08:09:22;;;;;;;9.20;4.18;;;;;;;24.18;59.81;96550.38;6129373;23;20004;-87
2023/05/30 08:11:48;;;;;;;9.93;3.63;;;;;;;25.88;48.98;96538.78;6153460;23;20341;-88
2023/05/30 08:14:21;;;;;;;8.25;3.80;;;;;;;24.54;53.08;96545.72;6126411;23;20002;-87
2023/05/30 08:16:47;;;;;;;14.15;4.65;;;;;;;24.94;53.76;96543.75;6126379;23;20782;-87
2023/05/30 08:19:13;;;;;;;5.97;3.63;;;;;;;24.34;55.30;96548.78;6124820;23;20064;-87
2023/05/30 08:21:54;;;;;;;7.60;3.65;;;;;;;24.77;57.12;96542.09;6149467;23;20006;-87
2023/05/30 08:24:22;;;;;;;8.25;4.13;;;;;;;25.68;51.36;96539.28;6149482;23;20013;-86
2023/05/30 08:26:55;;;;;;;6.40;3.65;;;;;;;23.27;63.59;96549.91;6100427;23;20025;-87
2023/05/30 08:29:55;;;;;;;;;;;;;;;24.43;55.81;96547.41;6151782;23;20016;-86
2023/05/30 08:33:09;;;;;;;8.60;3.78;;;;;;;26.19;46.88;96548.91;6061426;23;19916;-87
2023/05/30 08:36:02;;;;;;;6.63;3.95;;;;;;;24.70;53.95;96558.38;6012945;23;20015;-88
2023/05/30 08:38:28;;;;;;;;;;;;;;;26.21;47.82;96545.97;6094091;23;20044;-88
2023/05/30 08:40:54;;;;;;;7.22;3.97;;;;;;;26.78;46.31;96546.34;6124641;23;19952;-88
2023/05/30 08:43:20;;;;;;;25.15;5.65;;;;;;;26.18;48.91;96552.66;6125556;23;20059;-87
2023/05/30 08:45:50;;;;;;;9.45;4.30;;;;;;;26.33;47.16;96552.03;6125812;23;20005;-87
2023/05/30 08:48:18;;;;;;;12.10;4.63;;;;;;;26.44;45.13;96558.38;6126571;23;20017;-89
2023/05/30 08:50:44;;;;;;;8.95;4.05;;;;;;;25.97;47.43;96556.97;6150655;23;20012;-89
2023/05/30 08:53:13;;;;;;;12.25;3.83;;;;;;;25.28;48.65;96557.25;6123727;23;20053;-87
2023/05/30 08:55:49;;;;;;;10.75;4.00;;;;;;;25.45;49.94;96561.84;6122768;23;20423;-88
2023/05/30 08:58:36;;;;;;;5.93;3.58;;;;;;;25.82;47.49;96556.75;6135915;23;20028;-94
2023/05/30 09:01:03;;;;;;;7.38;4.05;;;;;;;26.06;45.19;96550.09;6163369;23;20005;-95
2023/05/30 09:04:14;;;;;;;7.93;3.83;;;;;;;26.86;45.27;96546.97;6113812;23;20003;-94
2023/05/30 09:06:47;;;;;;;7.72;3.75;;;;;;;26.77;44.74;96549.31;6133656;23;20017;-91
2023/05/30 09:09:18;;;;;;;43.95;9.15;;;;;;;27.18;42.07;96538.94;6128466;23;20005;-92
2023/05/30 09:11:48;;;;;;;11.80;4.30;;;;;;;27.25;40.96;96536.81;6130018;23;20330;-92
2023/05/30 09:14:14;;;;;;;6.88;4.53;;;;;;;26.48;44.09;96540.63;6128897;23;20017;-92
2023/05/30 09:16:40;;;;;;;7.63;4.03;;;;;;;27.54;41.81;96541.91;6127152;23;20009;-92
2023/05/30 09:19:07;;;;;;;8.15;3.80;;;;;;;26.47;45.57;96544.38;6131870;23;20064;-95
2023/05/30 09:21:34;;;;;;;15.02;4.57;;;;;;;28.01;42.50;96541.13;6160028;23;20032;-95
2023/05/30 09:24:04;;;;;;;6.82;3.63;;;;;;;27.75;42.04;96538.25;6140742;23;20002;-95
2023/05/30 09:26:30;;;;;;;113.60;16.90;;;;;;;28.95;38.61;96544.72;6142964;23;20006;-94
2023/05/30 09:28:55;;;;;;;10.35;3.97;;;;;;;28.69;39.50;96547.34;6144697;23;20005;-89
2023/05/30 09:54:06;;;;;;;14.52;4.18;;;;;;;28.56;37.72;96550.56;6121204;23;20020;-88
2023/05/30 09:56:42;;;;;;;28.55;6.00;;;;;;;29.71;36.31;96542.03;6096296;23;20505;-86
2023/05/30 09:59:24;;;;;;;6.88;3.53;;;;;;;28.63;36.18;96546.53;6102182;23;20421;-86
2023/05/30 10:01:50;;;;;;;8.10;3.90;;;;;;;28.40;38.99;96544.28;6127069;23;20006;-87
2023/05/30 10:04:23;;;;;;;7.97;3.60;;;;;;;29.46;36.67;96536.63;6126239;23;20002;-86
2023/05/30 10:06:51;;;;;;;;;;;;;;;30.42;35.79;96535.59;6129497;23;20009;-86
2023/05/30 10:09:21;;;;;;;8.10;3.80;;;;;;;30.56;34.08;96533.09;6155152;23;19975;-86
2023/05/30 10:11:48;;;;;;;7.28;3.60;;;;;;;28.77;35.42;96537.88;6152034;23;20394;-86
2023/05/30 10:14:14;;;;;;;7.25;3.78;;;;;;;28.41;36.43;96541.34;6125860;23;20001;-86
2023/05/30 10:16:47;;;;;;;8.90;4.15;;;;;;;29.96;34.92;96532.22;6125904;23;20071;-87
2023/05/30 10:19:30;;;;;;;7.30;3.75;;;;;;;29.28;36.09;96527.97;6152167;23;20028;-87
2023/05/30 10:22:06;;;;;;;11.25;3.80;;;;;;;30.50;32.95;96520.63;6154236;23;20062;-89
2023/05/30 10:24:31;;;;;;;7.63;3.78;;;;;;;29.98;33.97;96524.59;6130451;23;20010;-83
2023/05/30 10:27:03;;;;;;;11.98;3.60;;;;;;;29.86;34.39;96526.81;6123260;23;20016;-83
2023/05/30 10:29:37;;;;;;;6.40;2.95;;;;;;;30.43;33.22;96520.13;6122341;23;20013;-84
2023/05/30 10:32:05;;;;;;;8.65;3.38;;;;;;;31.09;32.29;96511.59;6147836;23;20006;-84
2023/05/30 10:34:38;;;;;;;10.38;3.33;;;;;;;29.65;33.53;96526.88;6098242;23;20005;-84
2023/05/30 10:37:05;;;;;;;7.85;3.50;;;;;;;31.28;31.42;96519.03;6099209;23;20092;-86
2023/05/30 10:40:12;;;;;;;9.75;3.45;;;;;;;31.21;31.28;96514.72;6123491;23;20081;-84
2023/05/30 10:42:58;;;;;;;7.15;3.53;;;;;;;29.04;33.91;96521.44;5997149;23;20011;-85
2023/05/30 10:45:59;;;;;;;8.43;3.97;;;;;;;29.25;32.55;96523.09;6125918;23;20002;-84
2023/05/30 10:48:44;;;;;;;8.15;3.70;;;;;;;28.35;33.56;96528.03;6079115;23;20017;-85
2023/05/30 10:51:11;;;;;;;6.60;3.63;;;;;;;28.16;35.48;96522.25;6124566;23;20442;-88
2023/05/30 10:53:42;;;;;;;8.05;3.50;;;;;;;27.84;36.65;96522.41;6125606;23;20426;-85
2023/05/30 10:56:26;;;;;;;10.05;3.72;;;;;;;28.63;35.58;96519.47;6126348;23;20061;-85
2023/05/30 10:58:55;;;;;;;5.80;3.50;;;;;;;29.36;33.70;96511.16;6126829;23;20050;-85
2023/05/30 11:01:28;;;;;;;7.40;3.55;;;;;;;28.87;33.93;96516.25;6104477;23;20464;-83
2023/05/30 11:04:13;;;;;;;8.57;3.65;;;;;;;30.00;33.58;96508.88;6154824;23;20029;-84
2023/05/30 11:06:44;;;;;;;6.57;3.60;;;;;;;30.14;34.22;96509.91;6127820;23;20005;-84
2023/05/30 11:09:15;;;;;;;7.07;3.40;;;;;;;31.34;31.41;96502.44;6127703;23;20013;-84
2023/05/30 11:11:46;;;;;;;9.35;3.42;;;;;;;29.87;32.49;96510.28;6124508;23;20028;-84
2023/05/30 11:14:14;;;;;;;8.18;3.88;;;;;;;28.49;34.42;96512.13;6122146;23;20434;-84
2023/05/30 11:16:54;;;;;;;5.25;3.22;;;;;;;30.76;32.23;96503.13;6122358;23;20029;-85
2023/05/30 11:19:26;;;;;;;5.57;3.08;;;;;;;30.38;31.17;96493.00;6122250;23;20051;-84
2023/05/30 11:22:00;;;;;;;7.68;3.70;;;;;;;31.60;31.12;96485.88;6121332;23;20803;-85
2023/05/30 11:24:27;;;;;;;8.13;3.30;;;;;;;31.77;31.17;96488.97;6123261;23;20001;-84
2023/05/30 11:27:06;;;;;;;5.90;3.05;;;;;;;29.92;32.99;96488.56;6122425;23;20032;-84
2023/05/30 11:29:48;;;;;;;6.57;3.85;;;;;;;31.09;31.28;96486.34;6122339;23;20017;-84
2023/05/30 11:32:20;;;;;;;9.75;3.70;;;;;;;31.05;31.73;96488.78;6123267;23;20017;-86
2023/05/30 11:34:56;;;;;;;6.18;3.30;;;;;;;30.15;32.31;96487.13;6120777;23;20084;-86
2023/05/30 11:37:22;;;;;;;7.30;3.45;;;;;;;30.26;32.31;96488.72;6120285;23;20005;-86
2023/05/30 11:39:48;;;;;;;5.35;3.35;;;;;;;29.57;32.93;96482.13;6120909;23;20012;-85
2023/05/30 11:42:13;;;;;;;7.30;3.00;;;;;;;27.47;36.25;96494.31;6122112;23;20001;-86
2023/05/30 11:44:41;;;;;;;8.88;3.85;;;;;;;27.09;37.69;96498.03;6150217;23;20006;-85
2023/05/30 11:47:10;;;;;;;6.97;3.50;;;;;;;27.61;36.03;96493.84;6124345;23;20581;-85
2023/05/30 11:49:36;;;;;;;5.57;3.42;;;;;;;28.83;33.92;96488.09;6124139;23;20314;-86
2023/05/30 11:52:02;;;;;;;7.97;3.30;;;;;;;29.30;34.22;96482.44;6124036;23;20014;-86
2023/05/30 11:54:28;;;;;;;12.65;4.03;;;;;;;30.42;32.81;96475.91;6098127;23;20080;-86
2023/05/30 11:56:57;;;;;;;6.85;4.15;;;;;;;30.05;32.72;96485.28;6148444;23;20009;-86
2023/05/30 11:59:24;;;;;;;6.95;3.58;;;;;;;29.05;34.36;96487.88;6124796;23;20006;-86
2023/05/30 12:01:57;;;;;;;10.32;4.10;;;;;;;29.19;33.68;96485.44;6123506;23;20058;-85
2023/05/30 12:04:49;;;;;;;8.82;3.03;;;;;;;29.74;32.94;96489.97;6126166;23;20005;-86
2023/05/30 12:07:16;;;;;;;5.65;3.08;;;;;;;29.82;33.96;96485.91;6092305;23;20041;-89
2023/05/30 12:09:41;;;;;;;8.55;3.40;;;;;;;30.21;32.81;96477.88;6128237;23;20400;-88
2023/05/30 12:12:08;;;;;;;5.82;2.83;;;;;;;30.16;32.09;96477.91;6128619;23;20025;-89
2023/05/30 12:15:01;;;;;;;8.40;3.78;;;;;;;30.33;32.25;96487.63;6126863;23;20023;-88
2023/05/30 12:20:52;;;;;;;6.75;3.15;;;;;;;30.46;30.67;96478.88;6036043;23;20712;-88
2023/05/30 12:23:25;;;;;;;6.85;3.80;;;;;;;30.09;31.18;96479.28;6009874;23;20155;-88
2023/05/30 12:25:58;;;;;;;6.00;3.15;;;;;;;28.96;33.27;96486.75;6009277;23;20476;-88
2023/05/30 12:28:24;;;;;;;9.32;3.38;;;;;;;28.60;32.45;96489.41;6007714;23;20015;-88
2023/05/30 12:30:51;;;;;;;8.43;3.30;;;;;;;28.39;33.86;96483.97;6058328;23;20084;-89
2023/05/30 12:33:24;;;;;;;8.18;3.50;;;;;;;28.99;32.71;96478.91;6099060;23;20021;-89
2023/05/30 12:39:46;;;;;;;7.97;3.47;;;;;;;28.59;33.23;96487.81;6061336;23;20022;-90
2023/05/30 12:42:11;;;;;;;6.82;3.30;;;;;;;28.61;33.36;96475.63;6076175;23;20084;-88
2023/05/30 12:44:52;;;;;;;5.95;3.38;;;;;;;29.12;32.29;96477.59;6099794;23;19997;-88